sensor_id;sensor_type;location;lat;lon;timestamp;P1;P2;P0
76043;PMS7003;64740;34.694;33.088;2023-09-19T00:00:55;6.8;6.6;5.3
76043;PMS7003;64740;34.694;33.088;2023-09-19T00:06:19;6.6;6.5;5.1
76043;PMS7003;64740;34.694;33.088;2023-09-19T00:11:35;7;7;5.5
76043;PMS7003;64740;34.694;33.088;2023-09-19T00:15:59;6.9;6.9;5.4
76043;PMS7003;64740;34.694;33.088;2023-09-19T00:20:53;6.2;6.2;5.3
76043;PMS7003;64740;34.694;33.088;2023-09-19T00:25:58;6.2;6;4.8
76043;PMS7003;64740;34.694;33.088;2023-09-19T00:31:35;6.3;6.2;5.1
76043;PMS7003;64740;34.694;33.088;2023-09-19T00:36:35;6.6;6.6;5.2
76043;PMS7003;64740;34.694;33.088;2023-09-19T00:41:19;6.3;6.3;5
76043;PMS7003;64740;34.694;33.088;2023-09-19T00:46:19;6.9;6.8;5.4
76043;PMS7003;64740;34.694;33.088;2023-09-19T00:51:11;6.6;6.5;5
76043;PMS7003;64740;34.694;33.088;2023-09-19T00:55:53;6.2;6.2;5
76043;PMS7003;64740;34.694;33.088;2023-09-19T01:01:33;6.6;6.5;5.2
76043;PMS7003;64740;34.694;33.088;2023-09-19T01:05:57;6.4;6.3;5.2
76043;PMS7003;64740;34.694;33.088;2023-09-19T01:11:19;6.6;6.6;5.3
76043;PMS7003;64740;34.694;33.088;2023-09-19T01:15:55;7.2;7.1;5.5
76043;PMS7003;64740;34.694;33.088;2023-09-19T01:21:22;6.2;6;5
76043;PMS7003;64740;34.694;33.088;2023-09-19T01:26:39;7;6.9;5.7
76043;PMS7003;64740;34.694;33.088;2023-09-19T01:31:09;7;6.9;5.5
76043;PMS7003;64740;34.694;33.088;2023-09-19T01:36:17;6.8;6.7;5.2
76043;PMS7003;64740;34.694;33.088;2023-09-19T01:41:29;6.9;6.7;5.5
76043;PMS7003;64740;34.694;33.088;2023-09-19T01:45:55;6.6;6.6;5.4
76043;PMS7003;64740;34.694;33.088;2023-09-19T01:51:37;6.9;6.8;5.3
76043;PMS7003;64740;34.694;33.088;2023-09-19T01:55:59;6.8;6.8;5.4
76043;PMS7003;64740;34.694;33.088;2023-09-19T02:00:53;6.2;6;5
76043;PMS7003;64740;34.694;33.088;2023-09-19T02:06:07;5.3;5.2;4.1
76043;PMS7003;64740;34.694;33.088;2023-09-19T02:11:15;6.3;6.2;5.1
76043;PMS7003;64740;34.694;33.088;2023-09-19T02:16:33;6.9;6.7;5.4
76043;PMS7003;64740;34.694;33.088;2023-09-19T02:21:09;7.3;6.9;5.5
76043;PMS7003;64740;34.694;33.088;2023-09-19T02:26:17;7.3;7.2;5.4
76043;PMS7003;64740;34.694;33.088;2023-09-19T02:31:09;7.2;6.9;5.4
76043;PMS7003;64740;34.694;33.088;2023-09-19T02:36:15;7.3;7.3;5.4
76043;PMS7003;64740;34.694;33.088;2023-09-19T02:41:19;6.6;6.4;5.1
76043;PMS7003;64740;34.694;33.088;2023-09-19T02:46:25;6.5;6.4;5.1
76043;PMS7003;64740;34.694;33.088;2023-09-19T02:50:53;6.9;6.7;5.2
76043;PMS7003;64740;34.694;33.088;2023-09-19T02:56:11;5.8;5.7;4.3
76043;PMS7003;64740;34.694;33.088;2023-09-19T03:01:19;6.7;6.7;5.5
76043;PMS7003;64740;34.694;33.088;2023-09-19T03:06:31;7.2;7;5.4
76043;PMS7003;64740;34.694;33.088;2023-09-19T03:11:33;6.5;6.4;5.3
76043;PMS7003;64740;34.694;33.088;2023-09-19T03:16:17;7.1;7;5.5
76043;PMS7003;64740;34.694;33.088;2023-09-19T03:21:17;6.8;6.7;5.2
76043;PMS7003;64740;34.694;33.088;2023-09-19T03:25:53;7.1;7;5.2
76043;PMS7003;64740;34.694;33.088;2023-09-19T03:31:05;6.9;6.9;5.3
76043;PMS7003;64740;34.694;33.088;2023-09-19T03:35:53;7.7;7.6;6.1
76043;PMS7003;64740;34.694;33.088;2023-09-19T03:40:53;7.1;7;5.4
76043;PMS7003;64740;34.694;33.088;2023-09-19T03:46:33;7.3;7.2;5.8
76043;PMS7003;64740;34.694;33.088;2023-09-19T03:51:05;7.4;6.8;5.7
76043;PMS7003;64740;34.694;33.088;2023-09-19T03:56:33;7.6;7.5;5.8
76043;PMS7003;64740;34.694;33.088;2023-09-19T04:01:31;7.3;7.1;5.4
76043;PMS7003;64740;34.694;33.088;2023-09-19T04:06:15;6.9;6.8;5.6
76043;PMS7003;64740;34.694;33.088;2023-09-19T04:11:11;7.8;7.6;5.9
76043;PMS7003;64740;34.694;33.088;2023-09-19T04:16:03;7.1;7;5.6
76043;PMS7003;64740;34.694;33.088;2023-09-19T04:21:11;7.9;7.5;6.1
76043;PMS7003;64740;34.694;33.088;2023-09-19T04:25:53;7.2;6.7;5.2
76043;PMS7003;64740;34.694;33.088;2023-09-19T04:30:53;7.1;7.1;5.4
76043;PMS7003;64740;34.694;33.088;2023-09-19T04:36:33;7.8;7.6;6.3
76043;PMS7003;64740;34.694;33.088;2023-09-19T04:41:11;8.4;8.2;6.2
76043;PMS7003;64740;34.694;33.088;2023-09-19T04:46:33;7.9;7.8;6.3
76043;PMS7003;64740;34.694;33.088;2023-09-19T04:51:33;8.6;8.2;6.4
76043;PMS7003;64740;34.694;33.088;2023-09-19T04:56:31;7.4;7.1;5.6
76043;PMS7003;64740;34.694;33.088;2023-09-19T05:01:17;8;7.7;5.7
76043;PMS7003;64740;34.694;33.088;2023-09-19T05:06:05;8.1;7.7;6
76043;PMS7003;64740;34.694;33.088;2023-09-19T05:11:07;7.5;7.5;5.9
76043;PMS7003;64740;34.694;33.088;2023-09-19T05:16:11;7.2;6.8;5.2
76043;PMS7003;64740;34.694;33.088;2023-09-19T06:05:59;8.3;8;6
76043;PMS7003;64740;34.694;33.088;2023-09-19T06:11:05;11.3;10.9;7.7
76043;PMS7003;64740;34.694;33.088;2023-09-19T06:16:35;10.8;10.3;7.7
76043;PMS7003;64740;34.694;33.088;2023-09-19T06:21:08;11.2;10.9;8.2
76043;PMS7003;64740;34.694;33.088;2023-09-19T06:26:35;11.3;10.8;8.3
76043;PMS7003;64740;34.694;33.088;2023-09-19T06:31:33;11.4;11.1;8.5
76043;PMS7003;64740;34.694;33.088;2023-09-19T06:36:15;10.8;10.5;8.2
76043;PMS7003;64740;34.694;33.088;2023-09-19T06:41:19;11.8;11.6;8.9
76043;PMS7003;64740;34.694;33.088;2023-09-19T06:45:59;11.5;11.4;8.7
76043;PMS7003;64740;34.694;33.088;2023-09-19T06:51:17;10.9;10.5;8.3
76043;PMS7003;64740;34.694;33.088;2023-09-19T06:55:53;9.6;9.4;6.8
76043;PMS7003;64740;34.694;33.088;2023-09-19T07:00:53;11;10.8;8.3
76043;PMS7003;64740;34.694;33.088;2023-09-19T07:06:27;10.2;9.9;7.9
76043;PMS7003;64740;34.694;33.088;2023-09-19T07:11:11;10.8;10.5;7.9
76043;PMS7003;64740;34.694;33.088;2023-09-19T07:16:31;10.5;10.3;7.4
76043;PMS7003;64740;34.694;33.088;2023-09-19T07:21:33;10;9.7;7.7
76043;PMS7003;64740;34.694;33.088;2023-09-19T07:26:35;10.3;10.2;7.6
76043;PMS7003;64740;34.694;33.088;2023-09-19T07:31:33;11.2;11;8.2
76043;PMS7003;64740;34.694;33.088;2023-09-19T07:35:53;10.6;10.3;7.9
76043;PMS7003;64740;34.694;33.088;2023-09-19T07:40:53;11.4;10.8;7.8
76043;PMS7003;64740;34.694;33.088;2023-09-19T07:46:21;10;9.9;7.3
76043;PMS7003;64740;34.694;33.088;2023-09-19T07:50:53;11.2;11;8.1
76043;PMS7003;64740;34.694;33.088;2023-09-19T07:56:27;10.9;10.7;8.4
76043;PMS7003;64740;34.694;33.088;2023-09-19T08:01:07;11;10.9;8.7
76043;PMS7003;64740;34.694;33.088;2023-09-19T08:06:33;10.3;10.2;7.4
76043;PMS7003;64740;34.694;33.088;2023-09-19T08:11:25;11.1;11;8.4
76043;PMS7003;64740;34.694;33.088;2023-09-19T08:16:35;12.4;11.7;8.7
76043;PMS7003;64740;34.694;33.088;2023-09-19T08:21:35;10.1;9.8;7.4
76043;PMS7003;64740;34.694;33.088;2023-09-19T08:25:55;11.3;11.1;8.5
76043;PMS7003;64740;34.694;33.088;2023-09-19T08:31:01;11;10.6;8.4
76043;PMS7003;64740;34.694;33.088;2023-09-19T08:35:55;12;11.8;8.7
76043;PMS7003;64740;34.694;33.088;2023-09-19T08:40:59;11.6;11.4;8.7
76043;PMS7003;64740;34.694;33.088;2023-09-19T08:45:56;10.8;10.4;7.9
76043;PMS7003;64740;34.694;33.088;2023-09-19T08:51:07;11.5;11.5;9.1
76043;PMS7003;64740;34.694;33.088;2023-09-19T08:56:19;12.8;12.5;9.2
76043;PMS7003;64740;34.694;33.088;2023-09-19T09:01:14;12.7;12.3;9.4
76043;PMS7003;64740;34.694;33.088;2023-09-19T09:06:35;12.4;12.1;9.4
76043;PMS7003;64740;34.694;33.088;2023-09-19T09:11:35;12.6;12.2;9.3
76043;PMS7003;64740;34.694;33.088;2023-09-19T09:16:35;12.3;12;9.3
76043;PMS7003;64740;34.694;33.088;2023-09-19T09:20:53;11.7;11.4;8.9
76043;PMS7003;64740;34.694;33.088;2023-09-19T09:25:53;12.4;12.2;9.2
76043;PMS7003;64740;34.694;33.088;2023-09-19T09:30:53;13;12.8;9.7
76043;PMS7003;64740;34.694;33.088;2023-09-19T09:36:35;12.1;12;9.3
76043;PMS7003;64740;34.694;33.088;2023-09-19T09:41:09;12.1;11.9;9.3
76043;PMS7003;64740;34.694;33.088;2023-09-19T09:46:35;12;11.7;8.8
76043;PMS7003;64740;34.694;33.088;2023-09-19T09:51:35;12;11.7;9.3
76043;PMS7003;64740;34.694;33.088;2023-09-19T09:56:23;10.3;10.1;8.2
76043;PMS7003;64740;34.694;33.088;2023-09-19T10:01:07;11.7;11.5;9.3
76043;PMS7003;64740;34.694;33.088;2023-09-19T10:06:06;11.5;11.3;9.1
76043;PMS7003;64740;34.694;33.088;2023-09-19T10:10:53;11.6;11.5;8.7
76043;PMS7003;64740;34.694;33.088;2023-09-19T10:15:53;11.1;11;8.5
76043;PMS7003;64740;34.694;33.088;2023-09-19T10:20:53;10.9;10.7;8.6
76043;PMS7003;64740;34.694;33.088;2023-09-19T10:26:27;11.2;11.2;8.7
76043;PMS7003;64740;34.694;33.088;2023-09-19T10:31:21;11.8;11.7;9.2
76043;PMS7003;64740;34.694;33.088;2023-09-19T10:36:35;11.1;11;8.7
76043;PMS7003;64740;34.694;33.088;2023-09-19T10:41:27;10.9;10.8;8.5
76043;PMS7003;64740;34.694;33.088;2023-09-19T10:46:35;11.1;11.1;8.5
76043;PMS7003;64740;34.694;33.088;2023-09-19T10:51:38;11.2;11.1;9.2
76043;PMS7003;64740;34.694;33.088;2023-09-19T10:55:59;12;11.9;9.7
76043;PMS7003;64740;34.694;33.088;2023-09-19T11:00:53;13;12.9;9.8
76043;PMS7003;64740;34.694;33.088;2023-09-19T11:06:01;12.4;12.4;10
76043;PMS7003;64740;34.694;33.088;2023-09-19T11:10:53;12.3;12.1;9.5
76043;PMS7003;64740;34.694;33.088;2023-09-19T11:16:27;13.3;13.2;10.1
76043;PMS7003;64740;34.694;33.088;2023-09-19T11:22:18;13.8;13.4;10.5
76043;PMS7003;64740;34.694;33.088;2023-09-19T11:26:39;13.1;12.8;10.3
76043;PMS7003;64740;34.694;33.088;2023-09-19T11:31:43;12.6;12.2;10
76043;PMS7003;64740;34.694;33.088;2023-09-19T11:36:26;14.8;14.5;11
76043;PMS7003;64740;34.694;33.088;2023-09-19T11:41:36;13.2;13;10.2
76043;PMS7003;64740;34.694;33.088;2023-09-19T11:46:15;14;13.7;10.9
76043;PMS7003;64740;34.694;33.088;2023-09-19T11:51:10;14;13.9;10.9
76043;PMS7003;64740;34.694;33.088;2023-09-19T11:56:16;13.8;13.6;10.6
76043;PMS7003;64740;34.694;33.088;2023-09-19T12:01:13;15.1;14.5;11.2
76043;PMS7003;64740;34.694;33.088;2023-09-19T12:06:35;13.9;13.7;10.6
76043;PMS7003;64740;34.694;33.088;2023-09-19T12:10:53;12;11.9;9.1
76043;PMS7003;64740;34.694;33.088;2023-09-19T12:16:17;14.3;14.3;11.5
76043;PMS7003;64740;34.694;33.088;2023-09-19T12:21:28;13.9;13.6;10.4
76043;PMS7003;64740;34.694;33.088;2023-09-19T12:26:21;14.4;14.4;11.2
76043;PMS7003;64740;34.694;33.088;2023-09-19T12:31:33;13.7;13.6;10.7
76043;PMS7003;64740;34.694;33.088;2023-09-19T12:36:22;15;14.9;11.6
76043;PMS7003;64740;34.694;33.088;2023-09-19T12:40:54;14.5;14.4;11
76043;PMS7003;64740;34.694;33.088;2023-09-19T12:46:21;13.2;13.1;10.4
76043;PMS7003;64740;34.694;33.088;2023-09-19T12:51:13;13.6;13.5;10.5
76043;PMS7003;64740;34.694;33.088;2023-09-19T12:56:39;12.5;12.5;9.8
76043;PMS7003;64740;34.694;33.088;2023-09-19T13:00:53;12.1;11.7;9.3
76043;PMS7003;64740;34.694;33.088;2023-09-19T13:06:09;13.4;13.3;10.4
76043;PMS7003;64740;34.694;33.088;2023-09-19T13:11:15;13.3;13.2;10.2
76043;PMS7003;64740;34.694;33.088;2023-09-19T13:16:21;13.6;13.5;10.5
76043;PMS7003;64740;34.694;33.088;2023-09-19T13:21:35;13.4;13.3;10.4
76043;PMS7003;64740;34.694;33.088;2023-09-19T13:26:21;12.5;12.4;9.8
76043;PMS7003;64740;34.694;33.088;2023-09-19T13:31:05;12.9;12.8;9.7
76043;PMS7003;64740;34.694;33.088;2023-09-19T13:35:59;12.3;12.3;9.8
76043;PMS7003;64740;34.694;33.088;2023-09-19T13:41:13;11.1;11;8.8
76043;PMS7003;64740;34.694;33.088;2023-09-19T13:46:35;12;11.8;9.4
76043;PMS7003;64740;34.694;33.088;2023-09-19T13:51:35;10.3;10.1;7.8
76043;PMS7003;64740;34.694;33.088;2023-09-19T13:55:59;11.8;11.6;8.7
76043;PMS7003;64740;34.694;33.088;2023-09-19T14:01:27;11.8;11.6;9
76043;PMS7003;64740;34.694;33.088;2023-09-19T14:06:21;11.1;11;8.7
76043;PMS7003;64740;34.694;33.088;2023-09-19T14:11:35;11.4;11.3;8.7
76043;PMS7003;64740;34.694;33.088;2023-09-19T14:16:15;10.8;10.6;8.3
76043;PMS7003;64740;34.694;33.088;2023-09-19T14:21:05;9.4;8.9;6.9
76043;PMS7003;64740;34.694;33.088;2023-09-19T14:25:53;9.4;9.2;7.3
76043;PMS7003;64740;34.694;33.088;2023-09-19T14:31:11;9.4;9.4;7.1
76043;PMS7003;64740;34.694;33.088;2023-09-19T14:36:29;9.7;9.6;7.4
76043;PMS7003;64740;34.694;33.088;2023-09-19T14:41:13;9;8.9;7
76043;PMS7003;64740;34.694;33.088;2023-09-19T14:45:53;9.4;9.2;7.1
76043;PMS7003;64740;34.694;33.088;2023-09-19T14:51:25;9.4;9.2;7.1
76043;PMS7003;64740;34.694;33.088;2023-09-19T14:56:21;8.9;8.7;7
76043;PMS7003;64740;34.694;33.088;2023-09-19T15:01:35;7.7;7.6;5.8
76043;PMS7003;64740;34.694;33.088;2023-09-19T15:05:58;8.1;8;6.4
76043;PMS7003;64740;34.694;33.088;2023-09-19T15:10:53;8.8;8.5;6.2
76043;PMS7003;64740;34.694;33.088;2023-09-19T15:15:59;8.2;7.9;6.1
76043;PMS7003;64740;34.694;33.088;2023-09-19T15:21:11;9.5;9.4;7.1
76043;PMS7003;64740;34.694;33.088;2023-09-19T15:26:35;9.8;9.7;7.7
76043;PMS7003;64740;34.694;33.088;2023-09-19T15:31:23;8.9;8.8;6.6
76043;PMS7003;64740;34.694;33.088;2023-09-19T15:36:12;9.5;9.5;7.6
76043;PMS7003;64740;34.694;33.088;2023-09-19T15:41:15;10.8;10.7;8.2
76043;PMS7003;64740;34.694;33.088;2023-09-19T15:46:19;10.4;10.4;7.9
76043;PMS7003;64740;34.694;33.088;2023-09-19T15:51:31;11.1;11;8.4
76043;PMS7003;64740;34.694;33.088;2023-09-19T15:55:53;11.8;11.5;8.5
76043;PMS7003;64740;34.694;33.088;2023-09-19T16:00:53;10.3;10;7.8
76043;PMS7003;64740;34.694;33.088;2023-09-19T16:05:53;10.7;10.6;8.3
76043;PMS7003;64740;34.694;33.088;2023-09-19T16:11:01;10.6;10.5;8.2
76043;PMS7003;64740;34.694;33.088;2023-09-19T16:16:35;10.6;10.1;8
76043;PMS7003;64740;34.694;33.088;2023-09-19T16:21:00;12.8;12.5;9.3
76043;PMS7003;64740;34.694;33.088;2023-09-19T16:26:19;10.9;10.8;8.6
76043;PMS7003;64740;34.694;33.088;2023-09-19T16:31:25;11.9;11.8;9
76043;PMS7003;64740;34.694;33.088;2023-09-19T16:36:22;13.4;13.3;10.4
76043;PMS7003;64740;34.694;33.088;2023-09-19T16:41:35;12.6;12.5;9.6
76043;PMS7003;64740;34.694;33.088;2023-09-19T16:45:53;12.6;12;9.5
76043;PMS7003;64740;34.694;33.088;2023-09-19T16:50:59;13.5;13.3;10.3
76043;PMS7003;64740;34.694;33.088;2023-09-19T16:55:53;15.5;15.1;11.5
76043;PMS7003;64740;34.694;33.088;2023-09-19T17:01:14;14.2;14.2;10.9
76043;PMS7003;64740;34.694;33.088;2023-09-19T17:06:35;14.6;14.5;10.9
76043;PMS7003;64740;34.694;33.088;2023-09-19T17:11:25;17;16.7;12.8
76043;PMS7003;64740;34.694;33.088;2023-09-19T17:16:12;18.1;17.7;12.5
76043;PMS7003;64740;34.694;33.088;2023-09-19T17:21:27;16.9;16.7;12.5
76043;PMS7003;64740;34.694;33.088;2023-09-19T17:26:21;15.8;15.7;11.7
76043;PMS7003;64740;34.694;33.088;2023-09-19T17:31:35;16.5;16.3;11.7
76043;PMS7003;64740;34.694;33.088;2023-09-19T17:36:03;18.1;17.9;13
76043;PMS7003;64740;34.694;33.088;2023-09-19T17:41:01;15.6;15.2;10.8
76043;PMS7003;64740;34.694;33.088;2023-09-19T17:45:53;17.9;17.3;12.7
76043;PMS7003;64740;34.694;33.088;2023-09-19T17:50:59;17.4;16.8;12.7
76043;PMS7003;64740;34.694;33.088;2023-09-19T17:56:35;17.3;17;12.4
76043;PMS7003;64740;34.694;33.088;2023-09-19T18:01:09;15.7;15.6;11.4
76043;PMS7003;64740;34.694;33.088;2023-09-19T18:05:59;15.4;15.1;11.5
76043;PMS7003;64740;34.694;33.088;2023-09-19T18:11:12;14.7;14.5;11.1
76043;PMS7003;64740;34.694;33.088;2023-09-19T18:16:09;16.7;16.2;11.7
76043;PMS7003;64740;34.694;33.088;2023-09-19T18:21:37;16.9;16.8;12.9
76043;PMS7003;64740;34.694;33.088;2023-09-19T18:25:55;17;16.8;12.9
76043;PMS7003;64740;34.694;33.088;2023-09-19T18:31:05;17;16.6;12.6
76043;PMS7003;64740;34.694;33.088;2023-09-19T18:35:53;16.5;16.4;12.1
76043;PMS7003;64740;34.694;33.088;2023-09-19T18:40:59;16.2;15.9;11.7
76043;PMS7003;64740;34.694;33.088;2023-09-19T18:46:37;14.9;14.7;11.5
76043;PMS7003;64740;34.694;33.088;2023-09-19T18:51:27;14.6;14.5;11.1
76043;PMS7003;64740;34.694;33.088;2023-09-19T18:56:21;13.7;13.4;10.3
76043;PMS7003;64740;34.694;33.088;2023-09-19T19:01:25;14.5;14.4;10.9
76043;PMS7003;64740;34.694;33.088;2023-09-19T19:06:23;14.6;14.4;11.2
76043;PMS7003;64740;34.694;33.088;2023-09-19T19:11:10;14.7;14.4;11.2
76043;PMS7003;64740;34.694;33.088;2023-09-19T19:15:56;14.9;14.6;11.3
76043;PMS7003;64740;34.694;33.088;2023-09-19T19:21:13;13.3;13;10
76043;PMS7003;64740;34.694;33.088;2023-09-19T19:26:23;13.8;13.7;10.3
76043;PMS7003;64740;34.694;33.088;2023-09-19T19:31:37;13.3;13.1;10.3
76043;PMS7003;64740;34.694;33.088;2023-09-19T19:36:23;11.9;11.9;8.6
76043;PMS7003;64740;34.694;33.088;2023-09-19T19:41:19;11.1;10.9;8.4
76043;PMS7003;64740;34.694;33.088;2023-09-19T19:46:11;10.9;10.8;8.5
76043;PMS7003;64740;34.694;33.088;2023-09-19T19:51:08;11.6;11.4;8.7
76043;PMS7003;64740;34.694;33.088;2023-09-19T19:56:31;11;10.9;8.5
76043;PMS7003;64740;34.694;33.088;2023-09-19T20:01:23;11.4;11.2;8.7
76043;PMS7003;64740;34.694;33.088;2023-09-19T20:05:59;11.3;11.1;8.3
76043;PMS7003;64740;34.694;33.088;2023-09-19T20:11:00;10.8;10.8;8.1
76043;PMS7003;64740;34.694;33.088;2023-09-19T20:16:23;10.3;10;7.9
76043;PMS7003;64740;34.694;33.088;2023-09-19T20:21:37;10.7;10.3;7.9
76043;PMS7003;64740;34.694;33.088;2023-09-19T20:26:21;11.2;10.8;8.4
76043;PMS7003;64740;34.694;33.088;2023-09-19T20:31:04;10.7;10.5;8
76043;PMS7003;64740;34.694;33.088;2023-09-19T20:36:11;10.9;10.8;8.3
76043;PMS7003;64740;34.694;33.088;2023-09-19T20:41:07;10.9;10.7;8
76043;PMS7003;64740;34.694;33.088;2023-09-19T20:46:36;10.6;10.6;8.1
76043;PMS7003;64740;34.694;33.088;2023-09-19T20:50:53;10.2;10.2;7.6
76043;PMS7003;64740;34.694;33.088;2023-09-19T20:56:09;10.3;10.1;8
76043;PMS7003;64740;34.694;33.088;2023-09-19T21:01:08;10.1;10;7.7
76043;PMS7003;64740;34.694;33.088;2023-09-19T21:06:24;11.1;10.8;8.3
76043;PMS7003;64740;34.694;33.088;2023-09-19T21:11:37;12.5;12.1;9
76043;PMS7003;64740;34.694;33.088;2023-09-19T21:16:23;11.3;11.3;8.9
76043;PMS7003;64740;34.694;33.088;2023-09-19T21:21:19;12.8;12.6;9.9
76043;PMS7003;64740;34.694;33.088;2023-09-19T21:26:05;12.1;12.1;9.5
76043;PMS7003;64740;34.694;33.088;2023-09-19T21:31:08;11.4;11.3;8.6
76043;PMS7003;64740;34.694;33.088;2023-09-19T21:36:37;10.9;10.7;8.5
76043;PMS7003;64740;34.694;33.088;2023-09-19T21:41:08;11.9;11.8;9
76043;PMS7003;64740;34.694;33.088;2023-09-19T21:45:59;11;10.8;8.6
76043;PMS7003;64740;34.694;33.088;2023-09-19T21:51:06;11.7;11.7;9.4
76043;PMS7003;64740;34.694;33.088;2023-09-19T21:56:05;11.7;11.3;8.5
76043;PMS7003;64740;34.694;33.088;2023-09-19T22:01:18;12.2;11.9;9.1
76043;PMS7003;64740;34.694;33.088;2023-09-19T22:06:23;12;11.8;8.7
76043;PMS7003;64740;34.694;33.088;2023-09-19T22:11:21;12.6;12.2;9.3
76043;PMS7003;64740;34.694;33.088;2023-09-19T22:15:54;12.2;12;9.2
76043;PMS7003;64740;34.694;33.088;2023-09-19T22:21:07;11.4;11.4;8.8
76043;PMS7003;64740;34.694;33.088;2023-09-19T22:26:37;11.5;11.4;8.7
76043;PMS7003;64740;34.694;33.088;2023-09-19T22:31:24;11.7;11.6;9
76043;PMS7003;64740;34.694;33.088;2023-09-19T22:35:53;11.9;11.7;8.7
76043;PMS7003;64740;34.694;33.088;2023-09-19T22:40:53;11.8;11.5;8.7
76043;PMS7003;64740;34.694;33.088;2023-09-19T22:46:37;11.5;11.4;8.8
76043;PMS7003;64740;34.694;33.088;2023-09-19T22:51:37;11.1;10.9;8.4
76043;PMS7003;64740;34.694;33.088;2023-09-19T22:56:37;12.2;12.2;9.4
76043;PMS7003;64740;34.694;33.088;2023-09-19T23:01:37;10.8;10.7;8.4
76043;PMS7003;64740;34.694;33.088;2023-09-19T23:06:12;12.9;12.8;9.4
76043;PMS7003;64740;34.694;33.088;2023-09-19T23:10:53;10.9;10.8;8.4
76043;PMS7003;64740;34.694;33.088;2023-09-19T23:16:37;11.9;11.6;8.8
76043;PMS7003;64740;34.694;33.088;2023-09-19T23:20:53;11.5;11.3;8.9
76043;PMS7003;64740;34.694;33.088;2023-09-19T23:26:09;11.1;11;8.4
76043;PMS7003;64740;34.694;33.088;2023-09-19T23:30:59;11.5;11.4;9
76043;PMS7003;64740;34.694;33.088;2023-09-19T23:36:23;10.4;10.2;8
76043;PMS7003;64740;34.694;33.088;2023-09-19T23:41:35;11.3;11.2;8.6
76043;PMS7003;64740;34.694;33.088;2023-09-19T23:46:09;11.1;10.9;8.5
76043;PMS7003;64740;34.694;33.088;2023-09-19T23:51:21;11.4;11.1;8.8
76043;PMS7003;64740;34.694;33.088;2023-09-19T23:56:09;11.1;11;8.6
